sensor_id;sensor_type;location;lat;lon;timestamp;pressure;altitude;pressure_sealevel;temperature;humidity
66176;BME280;52977;44.816;20.538;2024-03-23T00:56:15;99657.94;;;13.67;62.63
66176;BME280;52977;44.816;20.538;2024-03-23T00:58:40;99650.84;;;13.66;62.47
66176;BME280;52977;44.816;20.538;2024-03-23T01:01:06;99650.06;;;13.65;62.57
66176;BME280;52977;44.816;20.538;2024-03-23T01:03:32;99655.44;;;13.62;62.70
66176;BME280;52977;44.816;20.538;2024-03-23T01:06:02;99651.88;;;13.61;62.89
66176;BME280;52977;44.816;20.538;2024-03-23T01:08:29;99650.28;;;13.60;62.71
66176;BME280;52977;44.816;20.538;2024-03-23T01:10:57;99652.56;;;13.58;63.24
66176;BME280;52977;44.816;20.538;2024-03-23T01:13:23;99643.56;;;13.58;63.29
66176;BME280;52977;44.816;20.538;2024-03-23T01:15:51;99642.75;;;13.57;62.88
66176;BME280;52977;44.816;20.538;2024-03-23T01:18:19;99641.94;;;13.57;63.19
66176;BME280;52977;44.816;20.538;2024-03-23T01:20:46;99633.72;;;13.57;63.51
66176;BME280;52977;44.816;20.538;2024-03-23T01:23:13;99647.09;;;13.58;62.89
66176;BME280;52977;44.816;20.538;2024-03-23T01:25:39;99641.25;;;13.60;63.10
66176;BME280;52977;44.816;20.538;2024-03-23T01:28:05;99642.03;;;13.60;63.16
66176;BME280;52977;44.816;20.538;2024-03-23T01:30:35;99642.03;;;13.60;63.16
66176;BME280;52977;44.816;20.538;2024-03-23T01:33:01;99633.38;;;13.58;63.08
66176;BME280;52977;44.816;20.538;2024-03-23T01:35:28;99633.38;;;13.58;63.67
66176;BME280;52977;44.816;20.538;2024-03-23T01:37:54;99631.19;;;13.52;64.12
66176;BME280;52977;44.816;20.538;2024-03-23T01:40:20;99632.34;;;13.50;63.85
66176;BME280;52977;44.816;20.538;2024-03-23T01:42:57;99617.06;;;13.49;63.63
66176;BME280;52977;44.816;20.538;2024-03-23T01:45:23;99624.47;;;13.49;64.16
66176;BME280;52977;44.816;20.538;2024-03-23T01:47:52;99625.28;;;13.49;63.81
66176;BME280;52977;44.816;20.538;2024-03-23T01:50:22;99619.78;;;13.49;63.64
66176;BME280;52977;44.816;20.538;2024-03-23T01:52:50;99623.66;;;13.48;63.94
66176;BME280;52977;44.816;20.538;2024-03-23T01:55:17;99618.19;;;13.48;63.87
66176;BME280;52977;44.816;20.538;2024-03-23T01:57:43;99612.69;;;13.48;63.84
66176;BME280;52977;44.816;20.538;2024-03-23T02:00:10;99618.19;;;13.48;64.02
66176;BME280;52977;44.816;20.538;2024-03-23T02:02:45;99612.13;;;13.43;64.15
66176;BME280;52977;44.816;20.538;2024-03-23T02:05:12;99607.91;;;13.45;63.76
66176;BME280;52977;44.816;20.538;2024-03-23T02:07:42;99607.22;;;13.48;64.00
66176;BME280;52977;44.816;20.538;2024-03-23T02:10:10;99609.50;;;13.46;63.65
66176;BME280;52977;44.816;20.538;2024-03-23T02:12:39;99609.97;;;13.48;63.87
66176;BME280;52977;44.816;20.538;2024-03-23T02:15:06;99606.31;;;13.44;63.75
66176;BME280;52977;44.816;20.538;2024-03-23T02:17:35;99607.56;;;13.47;63.82
66176;BME280;52977;44.816;20.538;2024-03-23T02:20:05;99601.25;;;13.46;63.61
66176;BME280;52977;44.816;20.538;2024-03-23T02:22:38;99594.06;;;13.42;63.71
66176;BME280;52977;44.816;20.538;2024-03-23T02:25:06;99595.34;;;13.44;63.75
66176;BME280;52977;44.816;20.538;2024-03-23T02:27:33;99602.09;;;13.47;63.79
66176;BME280;52977;44.816;20.538;2024-03-23T02:30:01;99593.03;;;13.46;64.00
66176;BME280;52977;44.816;20.538;2024-03-23T02:32:27;99593.03;;;13.46;63.68
66176;BME280;52977;44.816;20.538;2024-03-23T02:34:54;99586.41;;;13.47;63.92
66176;BME280;52977;44.816;20.538;2024-03-23T02:37:20;99592.59;;;13.44;64.07
66176;BME280;52977;44.816;20.538;2024-03-23T02:39:47;99573.75;;;13.43;63.93
66176;BME280;52977;44.816;20.538;2024-03-23T02:42:13;99576.38;;;13.39;64.40
66176;BME280;52977;44.816;20.538;2024-03-23T02:44:40;99577.94;;;13.28;64.50
66176;BME280;52977;44.816;20.538;2024-03-23T02:47:06;99581.50;;;13.28;64.61
66176;BME280;52977;44.816;20.538;2024-03-23T02:49:33;99570.28;;;13.21;64.68
66176;BME280;52977;44.816;20.538;2024-03-23T02:51:59;99571.81;;;13.19;65.36
66176;BME280;52977;44.816;20.538;2024-03-23T02:54:26;99569.50;;;13.21;65.09
66176;BME280;52977;44.816;20.538;2024-03-23T02:56:52;99567.19;;;13.23;65.00
66176;BME280;52977;44.816;20.538;2024-03-23T02:59:19;99561.50;;;13.28;64.88
66176;BME280;52977;44.816;20.538;2024-03-23T03:01:45;99564.38;;;13.31;64.56
66176;BME280;52977;44.816;20.538;2024-03-23T03:04:12;99551.34;;;13.28;64.76
66176;BME280;52977;44.816;20.538;2024-03-23T03:06:39;99551.34;;;13.28;64.98
66176;BME280;52977;44.816;20.538;2024-03-23T03:09:07;99543.91;;;13.29;65.17
66176;BME280;52977;44.816;20.538;2024-03-23T03:11:34;99549.41;;;13.29;64.90
66176;BME280;52977;44.816;20.538;2024-03-23T03:14:00;99544.28;;;13.27;65.15
66176;BME280;52977;44.816;20.538;2024-03-23T03:16:26;99556.38;;;13.26;65.15
66176;BME280;52977;44.816;20.538;2024-03-23T03:18:53;99546.53;;;13.25;65.23
66176;BME280;52977;44.816;20.538;2024-03-23T03:21:19;99544.63;;;13.26;65.21
66176;BME280;52977;44.816;20.538;2024-03-23T03:23:46;99547.56;;;13.08;65.85
66176;BME280;52977;44.816;20.538;2024-03-23T03:26:17;99540.63;;;13.11;65.80
66176;BME280;52977;44.816;20.538;2024-03-23T03:28:43;99537.19;;;13.14;65.90
66176;BME280;52977;44.816;20.538;2024-03-23T03:31:15;99543.94;;;13.16;65.88
66176;BME280;52977;44.816;20.538;2024-03-23T03:33:43;99544.63;;;13.13;66.33
66176;BME280;52977;44.816;20.538;2024-03-23T03:36:09;99540.97;;;13.09;66.08
66176;BME280;52977;44.816;20.538;2024-03-23T03:38:36;99540.97;;;13.09;66.36
66176;BME280;52977;44.816;20.538;2024-03-23T03:41:03;99532.63;;;13.06;66.61
66176;BME280;52977;44.816;20.538;2024-03-23T03:43:30;99535.34;;;13.06;66.67
66176;BME280;52977;44.816;20.538;2024-03-23T03:45:58;99524.41;;;13.06;66.40
66176;BME280;52977;44.816;20.538;2024-03-23T03:48:25;99525.22;;;13.06;66.48
66176;BME280;52977;44.816;20.538;2024-03-23T03:50:52;99524.19;;;13.11;66.26
66176;BME280;52977;44.816;20.538;2024-03-23T03:53:19;99521.56;;;13.14;66.09
66176;BME280;52977;44.816;20.538;2024-03-23T03:55:45;99521.78;;;13.22;65.77
66176;BME280;52977;44.816;20.538;2024-03-23T03:58:11;99515.81;;;13.20;65.81
66176;BME280;52977;44.816;20.538;2024-03-23T04:00:38;99516.63;;;13.20;65.81
66176;BME280;52977;44.816;20.538;2024-03-23T04:03:05;99525.31;;;13.22;65.53
66176;BME280;52977;44.816;20.538;2024-03-23T04:05:31;99517.09;;;13.22;65.50
66176;BME280;52977;44.816;20.538;2024-03-23T04:07:58;99520.16;;;13.21;65.51
66176;BME280;52977;44.816;20.538;2024-03-23T04:10:24;99520.53;;;13.19;64.78
66176;BME280;52977;44.816;20.538;2024-03-23T04:12:50;99517.00;;;13.19;64.30
66176;BME280;52977;44.816;20.538;2024-03-23T04:15:16;99516.16;;;13.18;64.07
66176;BME280;52977;44.816;20.538;2024-03-23T04:17:42;99522.91;;;13.21;64.54
66176;BME280;52977;44.816;20.538;2024-03-23T04:20:09;99518.56;;;13.20;64.78
66176;BME280;52977;44.816;20.538;2024-03-23T04:22:37;99529.53;;;13.20;65.08
66176;BME280;52977;44.816;20.538;2024-03-23T04:25:04;99526.00;;;13.19;64.85
66176;BME280;52977;44.816;20.538;2024-03-23T04:27:33;99527.03;;;13.14;64.98
66176;BME280;52977;44.816;20.538;2024-03-23T04:29:59;99521.09;;;13.12;64.69
66176;BME280;52977;44.816;20.538;2024-03-23T04:32:29;99525.09;;;13.15;64.20
66176;BME280;52977;44.816;20.538;2024-03-23T04:34:56;99527.81;;;13.15;63.56
66176;BME280;52977;44.816;20.538;2024-03-23T04:37:22;99520.03;;;13.17;62.85
66176;BME280;52977;44.816;20.538;2024-03-23T04:39:49;99520.88;;;13.18;62.44
66176;BME280;52977;44.816;20.538;2024-03-23T04:42:16;99529.44;;;13.16;62.78
66176;BME280;52977;44.816;20.538;2024-03-23T04:44:43;99513.34;;;13.14;62.69
66176;BME280;52977;44.816;20.538;2024-03-23T04:47:11;99523.81;;;13.12;62.29
66176;BME280;52977;44.816;20.538;2024-03-23T04:49:38;99519.81;;;13.10;61.90
66176;BME280;52977;44.816;20.538;2024-03-23T04:52:05;99516.41;;;13.13;61.40
66176;BME280;52977;44.816;20.538;2024-03-23T04:54:32;99518.34;;;13.12;61.50
66176;BME280;52977;44.816;20.538;2024-03-23T04:56:58;99528.06;;;13.10;61.67
66176;BME280;52977;44.816;20.538;2024-03-23T04:59:25;99519.81;;;13.10;61.27
66176;BME280;52977;44.816;20.538;2024-03-23T05:01:52;99521.31;;;13.07;61.31
66176;BME280;52977;44.816;20.538;2024-03-23T05:04:18;99515.81;;;13.07;61.03
66176;BME280;52977;44.816;20.538;2024-03-23T05:06:45;99513.78;;;13.04;61.08
66176;BME280;52977;44.816;20.538;2024-03-23T05:09:11;99516.06;;;13.02;60.94
66176;BME280;52977;44.816;20.538;2024-03-23T05:11:38;99507.97;;;13.06;60.37
66176;BME280;52977;44.816;20.538;2024-03-23T05:14:05;99510.34;;;13.07;59.76
66176;BME280;52977;44.816;20.538;2024-03-23T05:16:31;99501.00;;;13.08;59.48
66176;BME280;52977;44.816;20.538;2024-03-23T05:18:58;99502.94;;;13.08;59.54
66176;BME280;52977;44.816;20.538;2024-03-23T05:21:24;99507.97;;;12.81;61.70
66176;BME280;52977;44.816;20.538;2024-03-23T05:23:51;99502.84;;;12.21;64.11
66176;BME280;52977;44.816;20.538;2024-03-23T05:26:17;99508.84;;;11.81;66.83
66176;BME280;52977;44.816;20.538;2024-03-23T05:28:44;99508.25;;;11.75;66.79
66176;BME280;52977;44.816;20.538;2024-03-23T05:31:10;99504.22;;;11.94;66.66
66176;BME280;52977;44.816;20.538;2024-03-23T05:33:37;99500.31;;;12.16;65.38
66176;BME280;52977;44.816;20.538;2024-03-23T05:36:06;99494.44;;;12.39;64.41
66176;BME280;52977;44.816;20.538;2024-03-23T05:38:37;99495.38;;;12.55;62.64
66176;BME280;52977;44.816;20.538;2024-03-23T05:41:03;99501.22;;;12.66;61.61
66176;BME280;52977;44.816;20.538;2024-03-23T05:43:30;99496.75;;;12.74;60.81
66176;BME280;52977;44.816;20.538;2024-03-23T05:45:58;99501.00;;;12.83;60.17
66176;BME280;52977;44.816;20.538;2024-03-23T05:48:26;99495.63;;;12.87;59.66
66176;BME280;52977;44.816;20.538;2024-03-23T05:50:52;99489.13;;;12.92;58.73
66176;BME280;52977;44.816;20.538;2024-03-23T05:53:20;99491.28;;;12.98;59.12
66176;BME280;52977;44.816;20.538;2024-03-23T05:55:50;99484.34;;;13.01;58.82
66176;BME280;52977;44.816;20.538;2024-03-23T05:58:19;99492.34;;;13.06;58.42
66176;BME280;52977;44.816;20.538;2024-03-23T06:00:49;99492.06;;;13.11;58.32
66176;BME280;52977;44.816;20.538;2024-03-23T06:03:14;99497.34;;;13.16;57.99
66176;BME280;52977;44.816;20.538;2024-03-23T06:05:40;99491.16;;;13.20;58.22
66176;BME280;52977;44.816;20.538;2024-03-23T06:08:08;99493.66;;;13.25;58.13
66176;BME280;52977;44.816;20.538;2024-03-23T06:10:35;99485.88;;;13.27;58.14
66176;BME280;52977;44.816;20.538;2024-03-23T06:13:01;99488.88;;;13.34;57.70
66176;BME280;52977;44.816;20.538;2024-03-23T06:15:27;99492.53;;;13.38;57.46
66176;BME280;52977;44.816;20.538;2024-03-23T06:17:52;99485.53;;;13.41;57.27
66176;BME280;52977;44.816;20.538;2024-03-23T06:20:18;99488.84;;;13.46;57.06
66176;BME280;52977;44.816;20.538;2024-03-23T06:22:44;99488.19;;;13.49;56.87
66176;BME280;52977;44.816;20.538;2024-03-23T06:25:10;99485.16;;;13.55;56.55
66176;BME280;52977;44.816;20.538;2024-03-23T06:27:38;99487.69;;;13.60;56.54
66176;BME280;52977;44.816;20.538;2024-03-23T06:30:05;99492.94;;;13.65;56.30
66176;BME280;52977;44.816;20.538;2024-03-23T06:32:32;99494.63;;;13.70;56.22
66176;BME280;52977;44.816;20.538;2024-03-23T06:34:59;99494.25;;;13.71;56.56
66176;BME280;52977;44.816;20.538;2024-03-23T06:37:26;99489.25;;;13.73;56.74
66176;BME280;52977;44.816;20.538;2024-03-23T06:39:52;99481.09;;;13.77;56.69
66176;BME280;52977;44.816;20.538;2024-03-23T06:42:19;99485.22;;;13.83;56.62
66176;BME280;52977;44.816;20.538;2024-03-23T06:44:45;99487.25;;;13.86;56.62
66176;BME280;52977;44.816;20.538;2024-03-23T06:47:11;99480.34;;;13.92;56.21
66176;BME280;52977;44.816;20.538;2024-03-23T06:49:38;99483.19;;;13.96;56.00
66176;BME280;52977;44.816;20.538;2024-03-23T06:52:04;99487.97;;;13.99;56.21
66176;BME280;52977;44.816;20.538;2024-03-23T06:54:31;99480.28;;;14.05;56.29
66176;BME280;52977;44.816;20.538;2024-03-23T06:56:57;99478.81;;;14.07;56.43
66176;BME280;52977;44.816;20.538;2024-03-23T06:59:24;99476.47;;;14.09;56.33
66176;BME280;52977;44.816;20.538;2024-03-23T07:01:50;99484.41;;;14.11;56.62
66176;BME280;52977;44.816;20.538;2024-03-23T07:04:17;99477.38;;;14.13;56.71
66176;BME280;52977;44.816;20.538;2024-03-23T07:06:45;99488.03;;;14.15;56.71
66176;BME280;52977;44.816;20.538;2024-03-23T07:09:11;99481.84;;;14.18;56.68
66176;BME280;52977;44.816;20.538;2024-03-23T07:11:38;99478.03;;;14.23;56.82
66176;BME280;52977;44.816;20.538;2024-03-23T07:14:04;99471.41;;;14.24;56.63
66176;BME280;52977;44.816;20.538;2024-03-23T07:16:30;99473.00;;;14.25;56.81
66176;BME280;52977;44.816;20.538;2024-03-23T07:18:56;99460.50;;;14.27;56.55
66176;BME280;52977;44.816;20.538;2024-03-23T07:21:21;99457.06;;;14.30;56.07
66176;BME280;52977;44.816;20.538;2024-03-23T07:23:47;99454.31;;;14.30;55.33
66176;BME280;52977;44.816;20.538;2024-03-23T07:26:13;99458.72;;;14.35;54.82
66176;BME280;52977;44.816;20.538;2024-03-23T07:28:40;99458.38;;;14.36;54.69
66176;BME280;52977;44.816;20.538;2024-03-23T07:31:13;99456.88;;;14.39;54.48
66176;BME280;52977;44.816;20.538;2024-03-23T07:33:48;99447.56;;;14.44;54.51
66176;BME280;52977;44.816;20.538;2024-03-23T07:36:15;99453.94;;;14.48;54.89
66176;BME280;52977;44.816;20.538;2024-03-23T07:38:42;99449.34;;;14.52;54.79
66176;BME280;52977;44.816;20.538;2024-03-23T07:41:10;99449.09;;;14.57;54.15
66176;BME280;52977;44.816;20.538;2024-03-23T07:43:39;99455.13;;;14.63;54.19
66176;BME280;52977;44.816;20.538;2024-03-23T07:46:06;99449.28;;;14.64;54.24
66176;BME280;52977;44.816;20.538;2024-03-23T07:48:32;99447.78;;;14.67;53.32
66176;BME280;52977;44.816;20.538;2024-03-23T07:51:02;99442.03;;;14.72;53.65
66176;BME280;52977;44.816;20.538;2024-03-23T07:53:28;99433.44;;;14.74;53.58
66176;BME280;52977;44.816;20.538;2024-03-23T07:55:56;99431.19;;;14.79;53.53
66176;BME280;52977;44.816;20.538;2024-03-23T07:58:22;99426.59;;;14.83;53.31
66176;BME280;52977;44.816;20.538;2024-03-23T08:00:48;99430.22;;;14.88;53.14
66176;BME280;52977;44.816;20.538;2024-03-23T08:03:14;99422.38;;;14.90;52.92
66176;BME280;52977;44.816;20.538;2024-03-23T08:05:40;99420.09;;;14.92;52.95
66176;BME280;52977;44.816;20.538;2024-03-23T08:08:06;99420.63;;;14.97;53.35
66176;BME280;52977;44.816;20.538;2024-03-23T08:10:33;99419.88;;;15.00;52.93
66176;BME280;52977;44.816;20.538;2024-03-23T08:13:00;99427.84;;;15.06;52.84
66176;BME280;52977;44.816;20.538;2024-03-23T08:15:26;99426.31;;;15.08;53.03
66176;BME280;52977;44.816;20.538;2024-03-23T08:17:53;99423.56;;;15.08;53.06
66176;BME280;52977;44.816;20.538;2024-03-23T08:20:19;99422.44;;;15.09;54.79
66176;BME280;52977;44.816;20.538;2024-03-23T08:22:46;99420.56;;;15.13;55.92
66176;BME280;52977;44.816;20.538;2024-03-23T08:25:12;99417.94;;;15.20;56.29
66176;BME280;52977;44.816;20.538;2024-03-23T08:27:39;99413.69;;;15.23;56.42
66176;BME280;52977;44.816;20.538;2024-03-23T08:30:06;99415.00;;;15.29;56.59
66176;BME280;52977;44.816;20.538;2024-03-23T08:32:33;99405.69;;;15.34;58.02
66176;BME280;52977;44.816;20.538;2024-03-23T08:34:59;99417.25;;;15.43;56.77
66176;BME280;52977;44.816;20.538;2024-03-23T08:37:26;99411.69;;;15.59;55.40
66176;BME280;52977;44.816;20.538;2024-03-23T08:39:53;99408.56;;;15.41;56.53
66176;BME280;52977;44.816;20.538;2024-03-23T08:42:20;99409.22;;;15.34;56.21
66176;BME280;52977;44.816;20.538;2024-03-23T08:44:47;99405.03;;;15.41;56.29
66176;BME280;52977;44.816;20.538;2024-03-23T08:47:16;99404.94;;;15.37;56.10
66176;BME280;52977;44.816;20.538;2024-03-23T08:49:42;99402.63;;;15.39;55.97
66176;BME280;52977;44.816;20.538;2024-03-23T08:52:10;99390.91;;;15.42;56.09
66176;BME280;52977;44.816;20.538;2024-03-23T08:54:37;99383.16;;;15.48;55.15
66176;BME280;52977;44.816;20.538;2024-03-23T08:57:03;99382.50;;;15.54;55.86
66176;BME280;52977;44.816;20.538;2024-03-23T08:59:30;99377.16;;;15.62;55.29
66176;BME280;52977;44.816;20.538;2024-03-23T09:01:56;99380.06;;;15.72;53.96
66176;BME280;52977;44.816;20.538;2024-03-23T09:04:23;99379.38;;;15.76;52.34
66176;BME280;52977;44.816;20.538;2024-03-23T09:06:49;99376.69;;;15.79;52.81
66176;BME280;52977;44.816;20.538;2024-03-23T09:09:16;99366.53;;;15.83;51.67
66176;BME280;52977;44.816;20.538;2024-03-23T09:11:43;99372.63;;;15.93;51.66
66176;BME280;52977;44.816;20.538;2024-03-23T09:14:09;99362.88;;;15.99;50.32
66176;BME280;52977;44.816;20.538;2024-03-23T09:16:36;99360.63;;;16.04;50.07
66176;BME280;52977;44.816;20.538;2024-03-23T09:19:02;99354.06;;;16.13;50.23
66176;BME280;52977;44.816;20.538;2024-03-23T09:21:29;99352.53;;;16.15;50.04
66176;BME280;52977;44.816;20.538;2024-03-23T09:23:56;99347.53;;;16.21;50.06
66176;BME280;52977;44.816;20.538;2024-03-23T09:26:22;99346.06;;;16.27;50.18
66176;BME280;52977;44.816;20.538;2024-03-23T09:28:49;99346.94;;;16.35;49.23
66176;BME280;52977;44.816;20.538;2024-03-23T09:31:17;99336.09;;;16.46;48.14
66176;BME280;52977;44.816;20.538;2024-03-23T09:33:43;99334.25;;;16.53;47.82
66176;BME280;52977;44.816;20.538;2024-03-23T09:36:10;99332.31;;;16.57;47.45
66176;BME280;52977;44.816;20.538;2024-03-23T09:38:36;99331.97;;;16.59;47.73
66176;BME280;52977;44.816;20.538;2024-03-23T09:41:07;99321.75;;;16.60;47.18
66176;BME280;52977;44.816;20.538;2024-03-23T09:43:35;99326.13;;;16.64;47.16
66176;BME280;52977;44.816;20.538;2024-03-23T09:46:02;99324.66;;;16.70;46.92
66176;BME280;52977;44.816;20.538;2024-03-23T09:48:29;99310.91;;;16.74;47.06
66176;BME280;52977;44.816;20.538;2024-03-23T09:50:56;99300.41;;;16.83;46.52
66176;BME280;52977;44.816;20.538;2024-03-23T09:53:22;99309.09;;;16.85;46.68
66176;BME280;52977;44.816;20.538;2024-03-23T09:55:48;99297.78;;;16.90;47.00
66176;BME280;52977;44.816;20.538;2024-03-23T09:58:16;99293.84;;;16.91;47.35
66176;BME280;52977;44.816;20.538;2024-03-23T10:00:43;99295.06;;;16.94;46.95
66176;BME280;52977;44.816;20.538;2024-03-23T10:03:10;99291.19;;;16.99;46.92
66176;BME280;52977;44.816;20.538;2024-03-23T10:05:37;99280.94;;;16.99;46.92
66176;BME280;52977;44.816;20.538;2024-03-23T10:10:43;99280.34;;;17.17;46.42
66176;BME280;52977;44.816;20.538;2024-03-23T10:13:10;99279.66;;;17.23;46.44
66176;BME280;52977;44.816;20.538;2024-03-23T10:15:38;99264.78;;;17.35;46.83
66176;BME280;52977;44.816;20.538;2024-03-23T10:18:18;99274.38;;;17.49;46.46
66176;BME280;52977;44.816;20.538;2024-03-23T10:21:10;99262.97;;;17.54;45.52
66176;BME280;52977;44.816;20.538;2024-03-23T10:23:56;99259.50;;;17.57;45.08
66176;BME280;52977;44.816;20.538;2024-03-23T10:26:24;99253.94;;;17.53;44.71
66176;BME280;52977;44.816;20.538;2024-03-23T10:29:10;99248.41;;;17.53;45.03
66176;BME280;52977;44.816;20.538;2024-03-23T10:31:38;99241.72;;;17.54;45.48
66176;BME280;52977;44.816;20.538;2024-03-23T10:34:07;99242.25;;;17.71;45.02
66176;BME280;52977;44.816;20.538;2024-03-23T10:36:34;99231.66;;;17.80;44.77
66176;BME280;52977;44.816;20.538;2024-03-23T10:39:05;99224.59;;;17.83;45.27
66176;BME280;52977;44.816;20.538;2024-03-23T10:41:33;99221.84;;;17.83;45.40
66176;BME280;52977;44.816;20.538;2024-03-23T10:44:01;99221.44;;;17.84;44.82
66176;BME280;52977;44.816;20.538;2024-03-23T10:46:28;99218.69;;;17.84;44.58
66176;BME280;52977;44.816;20.538;2024-03-23T10:48:55;99213.56;;;17.79;44.48
66176;BME280;52977;44.816;20.538;2024-03-23T10:51:21;99211.56;;;17.83;45.14
66176;BME280;52977;44.816;20.538;2024-03-23T10:53:48;99191.09;;;17.84;45.39
66176;BME280;52977;44.816;20.538;2024-03-23T10:56:19;99193.84;;;17.84;45.39
66176;BME280;52977;44.816;20.538;2024-03-23T10:58:47;99187.94;;;17.86;44.62
66176;BME280;52977;44.816;20.538;2024-03-23T11:01:16;99189.53;;;17.87;44.21
66176;BME280;52977;44.816;20.538;2024-03-23T11:03:46;99180.03;;;17.84;44.49
66176;BME280;52977;44.816;20.538;2024-03-23T11:06:39;99174.53;;;17.84;44.04
66176;BME280;52977;44.816;20.538;2024-03-23T11:17:20;99156.63;;;18.26;42.20
66176;BME280;52977;44.816;20.538;2024-03-23T11:20:01;99149.97;;;18.31;42.00
66176;BME280;52977;44.816;20.538;2024-03-23T11:22:41;99143.28;;;18.36;41.71
66176;BME280;52977;44.816;20.538;2024-03-23T11:25:21;99138.56;;;18.47;42.01
66176;BME280;52977;44.816;20.538;2024-03-23T11:27:49;99143.75;;;18.59;41.29
66176;BME280;52977;44.816;20.538;2024-03-23T11:30:21;99137.06;;;18.68;41.38
66176;BME280;52977;44.816;20.538;2024-03-23T11:32:50;99137.09;;;18.78;41.36
66176;BME280;52977;44.816;20.538;2024-03-23T11:35:30;99130.00;;;18.85;41.11
66176;BME280;52977;44.816;20.538;2024-03-23T11:38:02;99117.00;;;18.89;41.18
66176;BME280;52977;44.816;20.538;2024-03-23T11:40:30;99105.94;;;18.92;41.08
66176;BME280;52977;44.816;20.538;2024-03-23T11:43:01;99102.41;;;19.03;41.82
66176;BME280;52977;44.816;20.538;2024-03-23T11:45:34;99092.13;;;19.10;41.40
66176;BME280;52977;44.816;20.538;2024-03-23T11:48:08;99095.28;;;19.23;41.40
66176;BME280;52977;44.816;20.538;2024-03-23T11:50:37;99091.75;;;19.30;40.33
66176;BME280;52977;44.816;20.538;2024-03-23T11:53:18;99079.47;;;19.38;40.55
66176;BME280;52977;44.816;20.538;2024-03-23T11:55:51;99071.94;;;19.46;40.81
66176;BME280;52977;44.816;20.538;2024-03-23T11:58:23;99062.81;;;19.56;40.45
66176;BME280;52977;44.816;20.538;2024-03-23T12:00:56;99064.03;;;19.66;39.66
66176;BME280;52977;44.816;20.538;2024-03-23T12:03:25;99055.69;;;19.73;38.65
66176;BME280;52977;44.816;20.538;2024-03-23T12:05:52;99048.97;;;19.82;39.46
66176;BME280;52977;44.816;20.538;2024-03-23T12:08:29;99050.13;;;19.84;39.08
66176;BME280;52977;44.816;20.538;2024-03-23T12:11:16;99036.66;;;19.90;38.47
66176;BME280;52977;44.816;20.538;2024-03-23T12:13:44;99042.59;;;19.92;38.37
66176;BME280;52977;44.816;20.538;2024-03-23T12:16:19;99025.53;;;20.01;38.97
66176;BME280;52977;44.816;20.538;2024-03-23T12:18:48;99030.25;;;20.07;38.95
66176;BME280;52977;44.816;20.538;2024-03-23T12:21:18;99023.09;;;20.21;36.92
66176;BME280;52977;44.816;20.538;2024-03-23T12:23:45;99019.09;;;20.29;35.59
66176;BME280;52977;44.816;20.538;2024-03-23T12:26:13;99004.34;;;20.39;36.94
66176;BME280;52977;44.816;20.538;2024-03-23T12:28:39;99005.53;;;20.42;36.04
66176;BME280;52977;44.816;20.538;2024-03-23T12:31:06;99001.94;;;20.48;36.55
66176;BME280;52977;44.816;20.538;2024-03-23T12:33:33;99007.00;;;20.57;37.46
66176;BME280;52977;44.816;20.538;2024-03-23T12:35:59;99001.03;;;20.62;36.40
66176;BME280;52977;44.816;20.538;2024-03-23T12:38:26;98999.00;;;20.74;37.11
66176;BME280;52977;44.816;20.538;2024-03-23T12:40:52;98991.81;;;20.80;36.57
66176;BME280;52977;44.816;20.538;2024-03-23T12:43:19;98990.56;;;20.85;35.99
66176;BME280;52977;44.816;20.538;2024-03-23T12:45:49;98985.38;;;20.90;35.83
66176;BME280;52977;44.816;20.538;2024-03-23T12:48:16;98977.09;;;20.87;35.89
66176;BME280;52977;44.816;20.538;2024-03-23T12:50:43;98962.38;;;20.93;36.74
66176;BME280;52977;44.816;20.538;2024-03-23T12:53:10;98968.22;;;21.03;35.89
66176;BME280;52977;44.816;20.538;2024-03-23T12:55:37;98961.81;;;21.13;35.94
66176;BME280;52977;44.816;20.538;2024-03-23T12:58:04;98959.78;;;21.17;35.78
66176;BME280;52977;44.816;20.538;2024-03-23T13:00:31;98958.03;;;21.30;36.22
66176;BME280;52977;44.816;20.538;2024-03-23T13:02:57;98960.13;;;21.23;35.62
66176;BME280;52977;44.816;20.538;2024-03-23T13:05:24;98960.13;;;21.19;35.72
66176;BME280;52977;44.816;20.538;2024-03-23T13:07:50;98950.03;;;21.36;35.83
66176;BME280;52977;44.816;20.538;2024-03-23T13:10:17;98943.59;;;21.46;35.66
66176;BME280;52977;44.816;20.538;2024-03-23T13:12:43;98937.16;;;21.57;36.06
66176;BME280;52977;44.816;20.538;2024-03-23T13:15:10;98933.09;;;21.65;35.62
66176;BME280;52977;44.816;20.538;2024-03-23T13:17:36;98935.00;;;21.72;35.63
66176;BME280;52977;44.816;20.538;2024-03-23T13:20:03;98928.28;;;21.69;36.08
66176;BME280;52977;44.816;20.538;2024-03-23T13:22:30;98923.00;;;21.78;35.53
66176;BME280;52977;44.816;20.538;2024-03-23T13:24:57;98915.88;;;21.77;34.53
66176;BME280;52977;44.816;20.538;2024-03-23T13:27:23;98916.72;;;21.74;35.22
66176;BME280;52977;44.816;20.538;2024-03-23T13:29:50;98912.34;;;21.73;35.76
66176;BME280;52977;44.816;20.538;2024-03-23T13:32:16;98915.44;;;21.79;35.37
66176;BME280;52977;44.816;20.538;2024-03-23T13:34:43;98914.66;;;21.78;34.83
66176;BME280;52977;44.816;20.538;2024-03-23T13:37:10;98907.88;;;21.79;35.04
66176;BME280;52977;44.816;20.538;2024-03-23T13:39:37;98898.81;;;21.75;34.37
66176;BME280;52977;44.816;20.538;2024-03-23T13:42:04;98908.09;;;21.65;34.93
66176;BME280;52977;44.816;20.538;2024-03-23T13:44:30;98897.50;;;21.56;34.93
66176;BME280;52977;44.816;20.538;2024-03-23T13:46:57;98894.72;;;21.56;35.55
66176;BME280;52977;44.816;20.538;2024-03-23T13:51:57;98877.13;;;21.66;35.44
66176;BME280;52977;44.816;20.538;2024-03-23T13:54:25;98880.75;;;21.63;35.27
66176;BME280;52977;44.816;20.538;2024-03-23T13:56:52;98882.75;;;21.63;34.70
66176;BME280;52977;44.816;20.538;2024-03-23T13:59:19;98873.72;;;21.55;33.80
66176;BME280;52977;44.816;20.538;2024-03-23T14:01:49;98862.03;;;21.37;34.14